sensor_id;sensor_type;location;lat;lon;timestamp;P1;durP1;ratioP1;P2;durP2;ratioP2
24739;SDS011;45234;48.148;17.128;2023-07-20T00:00:51;4.00;;;3.28;;
24739;SDS011;45234;48.148;17.128;2023-07-20T00:03:19;5.07;;;3.40;;
24739;SDS011;45234;48.148;17.128;2023-07-20T00:05:51;4.22;;;3.22;;
24739;SDS011;45234;48.148;17.128;2023-07-20T00:08:18;3.17;;;2.83;;
24739;SDS011;45234;48.148;17.128;2023-07-20T00:10:45;5.50;;;3.10;;
24739;SDS011;45234;48.148;17.128;2023-07-20T00:13:12;4.38;;;3.58;;
24739;SDS011;45234;48.148;17.128;2023-07-20T00:15:39;7.05;;;3.65;;
24739;SDS011;45234;48.148;17.128;2023-07-20T00:18:06;5.75;;;3.47;;
24739;SDS011;45234;48.148;17.128;2023-07-20T00:20:33;5.03;;;3.22;;
24739;SDS011;45234;48.148;17.128;2023-07-20T00:22:59;4.57;;;3.35;;
24739;SDS011;45234;48.148;17.128;2023-07-20T00:25:27;6.32;;;3.25;;
24739;SDS011;45234;48.148;17.128;2023-07-20T00:27:54;5.80;;;4.00;;
24739;SDS011;45234;48.148;17.128;2023-07-20T00:30:21;5.03;;;3.53;;
24739;SDS011;45234;48.148;17.128;2023-07-20T00:32:48;4.43;;;3.72;;
24739;SDS011;45234;48.148;17.128;2023-07-20T00:35:15;6.45;;;3.80;;
24739;SDS011;45234;48.148;17.128;2023-07-20T00:37:42;4.43;;;3.25;;
24739;SDS011;45234;48.148;17.128;2023-07-20T00:40:09;5.95;;;3.70;;
24739;SDS011;45234;48.148;17.128;2023-07-20T00:42:36;4.53;;;3.35;;
24739;SDS011;45234;48.148;17.128;2023-07-20T00:45:04;5.45;;;3.83;;
24739;SDS011;45234;48.148;17.128;2023-07-20T00:47:31;5.65;;;3.33;;
24739;SDS011;45234;48.148;17.128;2023-07-20T00:49:59;5.45;;;3.55;;
24739;SDS011;45234;48.148;17.128;2023-07-20T00:52:29;6.15;;;4.00;;
24739;SDS011;45234;48.148;17.128;2023-07-20T00:54:56;5.03;;;3.55;;
24739;SDS011;45234;48.148;17.128;2023-07-20T00:57:23;6.32;;;3.50;;
24739;SDS011;45234;48.148;17.128;2023-07-20T00:59:51;6.03;;;3.42;;
24739;SDS011;45234;48.148;17.128;2023-07-20T01:02:19;5.60;;;3.83;;
24739;SDS011;45234;48.148;17.128;2023-07-20T01:04:46;6.72;;;4.03;;
24739;SDS011;45234;48.148;17.128;2023-07-20T01:07:18;6.85;;;3.40;;
24739;SDS011;45234;48.148;17.128;2023-07-20T01:10:16;4.65;;;3.30;;
24739;SDS011;45234;48.148;17.128;2023-07-20T01:12:50;6.97;;;4.07;;
24739;SDS011;45234;48.148;17.128;2023-07-20T01:15:18;5.90;;;3.65;;
24739;SDS011;45234;48.148;17.128;2023-07-20T01:17:46;5.70;;;3.75;;
24739;SDS011;45234;48.148;17.128;2023-07-20T01:20:14;6.13;;;3.55;;
24739;SDS011;45234;48.148;17.128;2023-07-20T01:31:23;6.22;;;3.80;;
24739;SDS011;45234;48.148;17.128;2023-07-20T01:33:52;5.20;;;3.30;;
24739;SDS011;45234;48.148;17.128;2023-07-20T01:36:22;6.47;;;3.60;;
24739;SDS011;45234;48.148;17.128;2023-07-20T01:38:52;5.70;;;4.03;;
24739;SDS011;45234;48.148;17.128;2023-07-20T01:41:20;4.55;;;3.92;;
24739;SDS011;45234;48.148;17.128;2023-07-20T01:43:47;6.60;;;3.97;;
24739;SDS011;45234;48.148;17.128;2023-07-20T01:46:14;6.22;;;3.67;;
24739;SDS011;45234;48.148;17.128;2023-07-20T01:48:41;6.53;;;4.00;;
24739;SDS011;45234;48.148;17.128;2023-07-20T01:51:08;6.88;;;4.22;;
24739;SDS011;45234;48.148;17.128;2023-07-20T01:53:35;5.72;;;3.80;;
24739;SDS011;45234;48.148;17.128;2023-07-20T01:56:02;5.32;;;3.88;;
24739;SDS011;45234;48.148;17.128;2023-07-20T01:58:29;4.57;;;3.30;;
24739;SDS011;45234;48.148;17.128;2023-07-20T02:00:56;5.65;;;4.03;;
24739;SDS011;45234;48.148;17.128;2023-07-20T02:03:23;4.95;;;3.80;;
24739;SDS011;45234;48.148;17.128;2023-07-20T02:05:52;5.13;;;3.85;;
24739;SDS011;45234;48.148;17.128;2023-07-20T02:08:19;7.05;;;4.22;;
24739;SDS011;45234;48.148;17.128;2023-07-20T02:10:47;5.68;;;3.97;;
24739;SDS011;45234;48.148;17.128;2023-07-20T02:13:15;6.40;;;4.65;;
24739;SDS011;45234;48.148;17.128;2023-07-20T02:15:42;6.10;;;4.00;;
24739;SDS011;45234;48.148;17.128;2023-07-20T02:18:09;4.70;;;3.55;;
24739;SDS011;45234;48.148;17.128;2023-07-20T02:20:36;5.85;;;4.13;;
24739;SDS011;45234;48.148;17.128;2023-07-20T02:23:03;6.07;;;4.43;;
24739;SDS011;45234;48.148;17.128;2023-07-20T02:25:30;7.43;;;4.90;;
24739;SDS011;45234;48.148;17.128;2023-07-20T02:27:57;7.85;;;3.92;;
24739;SDS011;45234;48.148;17.128;2023-07-20T02:30:25;9.50;;;4.47;;
24739;SDS011;45234;48.148;17.128;2023-07-20T02:32:53;5.85;;;4.22;;
24739;SDS011;45234;48.148;17.128;2023-07-20T02:35:21;5.95;;;4.15;;
24739;SDS011;45234;48.148;17.128;2023-07-20T02:37:47;5.63;;;4.22;;
24739;SDS011;45234;48.148;17.128;2023-07-20T02:40:15;7.00;;;4.47;;
24739;SDS011;45234;48.148;17.128;2023-07-20T02:42:42;6.47;;;4.30;;
24739;SDS011;45234;48.148;17.128;2023-07-20T02:45:08;6.00;;;4.22;;
24739;SDS011;45234;48.148;17.128;2023-07-20T02:47:35;6.72;;;4.05;;
24739;SDS011;45234;48.148;17.128;2023-07-20T02:50:06;7.70;;;4.50;;
24739;SDS011;45234;48.148;17.128;2023-07-20T02:52:35;4.65;;;3.88;;
24739;SDS011;45234;48.148;17.128;2023-07-20T02:55:01;10.35;;;4.15;;
24739;SDS011;45234;48.148;17.128;2023-07-20T02:57:29;7.43;;;4.45;;
24739;SDS011;45234;48.148;17.128;2023-07-20T02:59:56;6.25;;;4.35;;
24739;SDS011;45234;48.148;17.128;2023-07-20T03:02:23;7.03;;;4.15;;
24739;SDS011;45234;48.148;17.128;2023-07-20T03:04:51;9.38;;;4.65;;
24739;SDS011;45234;48.148;17.128;2023-07-20T03:07:17;6.97;;;4.65;;
24739;SDS011;45234;48.148;17.128;2023-07-20T03:09:46;8.85;;;5.00;;
24739;SDS011;45234;48.148;17.128;2023-07-20T03:12:13;7.13;;;4.60;;
24739;SDS011;45234;48.148;17.128;2023-07-20T03:14:41;9.43;;;4.57;;
24739;SDS011;45234;48.148;17.128;2023-07-20T03:17:08;8.93;;;4.88;;
24739;SDS011;45234;48.148;17.128;2023-07-20T03:19:35;7.38;;;4.38;;
24739;SDS011;45234;48.148;17.128;2023-07-20T03:22:03;6.43;;;3.85;;
24739;SDS011;45234;48.148;17.128;2023-07-20T03:24:30;9.35;;;4.80;;
24739;SDS011;45234;48.148;17.128;2023-07-20T03:26:57;5.88;;;4.30;;
24739;SDS011;45234;48.148;17.128;2023-07-20T03:29:25;6.63;;;4.28;;
24739;SDS011;45234;48.148;17.128;2023-07-20T03:31:52;7.03;;;4.38;;
24739;SDS011;45234;48.148;17.128;2023-07-20T03:34:19;7.45;;;4.80;;
24739;SDS011;45234;48.148;17.128;2023-07-20T03:36:46;5.32;;;4.63;;
24739;SDS011;45234;48.148;17.128;2023-07-20T03:39:13;6.55;;;4.70;;
24739;SDS011;45234;48.148;17.128;2023-07-20T03:41:40;6.88;;;4.40;;
24739;SDS011;45234;48.148;17.128;2023-07-20T03:44:09;7.20;;;4.30;;
24739;SDS011;45234;48.148;17.128;2023-07-20T03:46:36;8.35;;;4.72;;
24739;SDS011;45234;48.148;17.128;2023-07-20T03:49:03;7.10;;;5.07;;
24739;SDS011;45234;48.148;17.128;2023-07-20T03:51:32;8.80;;;5.30;;
24739;SDS011;45234;48.148;17.128;2023-07-20T03:53:59;10.60;;;4.70;;
24739;SDS011;45234;48.148;17.128;2023-07-20T03:56:26;14.60;;;4.78;;
24739;SDS011;45234;48.148;17.128;2023-07-20T03:58:54;9.60;;;4.97;;
24739;SDS011;45234;48.148;17.128;2023-07-20T04:01:21;6.80;;;4.82;;
24739;SDS011;45234;48.148;17.128;2023-07-20T04:03:48;4.55;;;4.05;;
24739;SDS011;45234;48.148;17.128;2023-07-20T04:06:15;5.93;;;4.40;;
24739;SDS011;45234;48.148;17.128;2023-07-20T04:08:44;10.80;;;4.57;;
24739;SDS011;45234;48.148;17.128;2023-07-20T04:11:14;6.95;;;4.85;;
24739;SDS011;45234;48.148;17.128;2023-07-20T04:13:41;7.38;;;4.50;;
24739;SDS011;45234;48.148;17.128;2023-07-20T04:16:08;7.20;;;4.70;;
24739;SDS011;45234;48.148;17.128;2023-07-20T04:18:35;8.13;;;4.35;;
24739;SDS011;45234;48.148;17.128;2023-07-20T04:21:02;7.38;;;4.40;;
24739;SDS011;45234;48.148;17.128;2023-07-20T04:23:30;7.10;;;4.90;;
24739;SDS011;45234;48.148;17.128;2023-07-20T04:25:56;4.60;;;3.90;;
24739;SDS011;45234;48.148;17.128;2023-07-20T04:28:23;9.25;;;4.57;;
24739;SDS011;45234;48.148;17.128;2023-07-20T04:30:50;6.47;;;4.20;;
24739;SDS011;45234;48.148;17.128;2023-07-20T04:33:18;6.82;;;4.45;;
24739;SDS011;45234;48.148;17.128;2023-07-20T04:38:23;9.48;;;4.57;;
24739;SDS011;45234;48.148;17.128;2023-07-20T04:40:59;5.13;;;3.63;;
24739;SDS011;45234;48.148;17.128;2023-07-20T04:43:28;6.72;;;4.68;;
24739;SDS011;45234;48.148;17.128;2023-07-20T04:45:56;7.95;;;4.22;;
24739;SDS011;45234;48.148;17.128;2023-07-20T04:48:23;6.30;;;4.60;;
24739;SDS011;45234;48.148;17.128;2023-07-20T04:50:52;6.65;;;4.43;;
24739;SDS011;45234;48.148;17.128;2023-07-20T04:53:19;5.57;;;4.13;;
24739;SDS011;45234;48.148;17.128;2023-07-20T04:55:49;6.90;;;4.20;;
24739;SDS011;45234;48.148;17.128;2023-07-20T04:58:19;10.02;;;4.50;;
24739;SDS011;45234;48.148;17.128;2023-07-20T05:00:48;9.73;;;4.05;;
24739;SDS011;45234;48.148;17.128;2023-07-20T05:03:16;5.88;;;4.20;;
24739;SDS011;45234;48.148;17.128;2023-07-20T05:05:44;8.73;;;4.40;;
24739;SDS011;45234;48.148;17.128;2023-07-20T05:08:15;7.88;;;4.13;;
24739;SDS011;45234;48.148;17.128;2023-07-20T05:10:42;6.68;;;4.13;;
24739;SDS011;45234;48.148;17.128;2023-07-20T05:13:09;5.88;;;4.47;;
24739;SDS011;45234;48.148;17.128;2023-07-20T05:15:36;8.13;;;3.90;;
24739;SDS011;45234;48.148;17.128;2023-07-20T05:18:06;5.97;;;3.90;;
24739;SDS011;45234;48.148;17.128;2023-07-20T05:20:34;6.80;;;3.85;;
24739;SDS011;45234;48.148;17.128;2023-07-20T05:23:01;8.57;;;3.75;;
24739;SDS011;45234;48.148;17.128;2023-07-20T05:25:29;7.25;;;3.70;;
24739;SDS011;45234;48.148;17.128;2023-07-20T05:27:56;6.93;;;3.80;;
24739;SDS011;45234;48.148;17.128;2023-07-20T05:30:23;4.38;;;3.42;;
24739;SDS011;45234;48.148;17.128;2023-07-20T05:32:50;5.18;;;3.50;;
24739;SDS011;45234;48.148;17.128;2023-07-20T05:35:18;7.35;;;3.58;;
24739;SDS011;45234;48.148;17.128;2023-07-20T05:37:45;7.60;;;3.72;;
24739;SDS011;45234;48.148;17.128;2023-07-20T05:40:12;8.38;;;3.90;;
24739;SDS011;45234;48.148;17.128;2023-07-20T05:42:40;6.43;;;3.00;;
24739;SDS011;45234;48.148;17.128;2023-07-20T05:45:07;12.07;;;4.10;;
24739;SDS011;45234;48.148;17.128;2023-07-20T05:47:34;7.15;;;4.13;;
24739;SDS011;45234;48.148;17.128;2023-07-20T05:50:01;8.90;;;3.65;;
24739;SDS011;45234;48.148;17.128;2023-07-20T05:52:29;7.63;;;3.60;;
24739;SDS011;45234;48.148;17.128;2023-07-20T05:54:56;7.32;;;3.80;;
24739;SDS011;45234;48.148;17.128;2023-07-20T05:57:23;7.22;;;3.72;;
24739;SDS011;45234;48.148;17.128;2023-07-20T05:59:50;5.38;;;3.45;;
24739;SDS011;45234;48.148;17.128;2023-07-20T06:02:17;6.32;;;3.70;;
24739;SDS011;45234;48.148;17.128;2023-07-20T06:04:44;6.88;;;3.97;;
24739;SDS011;45234;48.148;17.128;2023-07-20T06:07:13;9.63;;;4.47;;
24739;SDS011;45234;48.148;17.128;2023-07-20T06:09:40;7.00;;;3.33;;
24739;SDS011;45234;48.148;17.128;2023-07-20T06:12:08;7.22;;;3.80;;
24739;SDS011;45234;48.148;17.128;2023-07-20T06:14:35;4.38;;;3.55;;
24739;SDS011;45234;48.148;17.128;2023-07-20T06:17:03;10.18;;;4.18;;
24739;SDS011;45234;48.148;17.128;2023-07-20T06:19:30;8.65;;;4.30;;
24739;SDS011;45234;48.148;17.128;2023-07-20T06:21:56;10.35;;;4.40;;
24739;SDS011;45234;48.148;17.128;2023-07-20T06:24:23;7.47;;;4.32;;
24739;SDS011;45234;48.148;17.128;2023-07-20T06:26:50;6.72;;;3.83;;
24739;SDS011;45234;48.148;17.128;2023-07-20T06:29:17;5.60;;;4.45;;
24739;SDS011;45234;48.148;17.128;2023-07-20T06:31:44;7.28;;;3.67;;
24739;SDS011;45234;48.148;17.128;2023-07-20T06:34:11;5.25;;;3.80;;
24739;SDS011;45234;48.148;17.128;2023-07-20T06:36:38;6.68;;;4.40;;
24739;SDS011;45234;48.148;17.128;2023-07-20T06:39:05;9.10;;;3.83;;
24739;SDS011;45234;48.148;17.128;2023-07-20T06:41:35;6.68;;;3.70;;
24739;SDS011;45234;48.148;17.128;2023-07-20T06:44:05;9.30;;;3.88;;
24739;SDS011;45234;48.148;17.128;2023-07-20T06:46:33;4.20;;;3.80;;
24739;SDS011;45234;48.148;17.128;2023-07-20T06:49:00;5.28;;;3.10;;
24739;SDS011;45234;48.148;17.128;2023-07-20T06:51:30;3.58;;;3.10;;
24739;SDS011;45234;48.148;17.128;2023-07-20T06:53:57;6.35;;;3.30;;
24739;SDS011;45234;48.148;17.128;2023-07-20T06:56:24;3.40;;;3.10;;
24739;SDS011;45234;48.148;17.128;2023-07-20T06:58:52;4.72;;;3.97;;
24739;SDS011;45234;48.148;17.128;2023-07-20T07:01:19;5.55;;;4.10;;
24739;SDS011;45234;48.148;17.128;2023-07-20T07:03:49;4.72;;;3.25;;
24739;SDS011;45234;48.148;17.128;2023-07-20T07:06:21;4.85;;;4.00;;
24739;SDS011;45234;48.148;17.128;2023-07-20T07:08:50;9.52;;;3.97;;
24739;SDS011;45234;48.148;17.128;2023-07-20T07:11:18;5.13;;;3.47;;
24739;SDS011;45234;48.148;17.128;2023-07-20T07:13:46;4.13;;;3.72;;
24739;SDS011;45234;48.148;17.128;2023-07-20T07:16:16;6.00;;;3.90;;
24739;SDS011;45234;48.148;17.128;2023-07-20T07:18:46;5.53;;;3.33;;
24739;SDS011;45234;48.148;17.128;2023-07-20T07:21:14;4.53;;;3.17;;
24739;SDS011;45234;48.148;17.128;2023-07-20T07:23:42;4.70;;;3.90;;
24739;SDS011;45234;48.148;17.128;2023-07-20T07:26:11;5.20;;;3.47;;
24739;SDS011;45234;48.148;17.128;2023-07-20T07:28:38;10.00;;;4.18;;
24739;SDS011;45234;48.148;17.128;2023-07-20T07:31:05;5.20;;;3.35;;
24739;SDS011;45234;48.148;17.128;2023-07-20T07:33:32;8.57;;;2.65;;
24739;SDS011;45234;48.148;17.128;2023-07-20T07:36:00;5.07;;;2.95;;
24739;SDS011;45234;48.148;17.128;2023-07-20T07:38:27;3.88;;;3.28;;
24739;SDS011;45234;48.148;17.128;2023-07-20T07:41:14;4.32;;;3.83;;
24739;SDS011;45234;48.148;17.128;2023-07-20T07:43:41;4.47;;;2.58;;
24739;SDS011;45234;48.148;17.128;2023-07-20T07:46:09;5.07;;;2.70;;
24739;SDS011;45234;48.148;17.128;2023-07-20T07:48:36;5.13;;;2.80;;
24739;SDS011;45234;48.148;17.128;2023-07-20T07:51:02;3.47;;;3.08;;
24739;SDS011;45234;48.148;17.128;2023-07-20T07:53:29;6.95;;;3.25;;
24739;SDS011;45234;48.148;17.128;2023-07-20T07:55:58;4.05;;;2.95;;
24739;SDS011;45234;48.148;17.128;2023-07-20T07:58:25;5.63;;;3.17;;
24739;SDS011;45234;48.148;17.128;2023-07-20T08:00:52;7.68;;;3.92;;
24739;SDS011;45234;48.148;17.128;2023-07-20T08:03:19;7.53;;;3.58;;
24739;SDS011;45234;48.148;17.128;2023-07-20T08:05:46;5.55;;;4.75;;
24739;SDS011;45234;48.148;17.128;2023-07-20T08:08:13;5.68;;;3.28;;
24739;SDS011;45234;48.148;17.128;2023-07-20T08:10:40;3.70;;;3.40;;
24739;SDS011;45234;48.148;17.128;2023-07-20T08:13:07;5.78;;;3.10;;
24739;SDS011;45234;48.148;17.128;2023-07-20T08:15:34;4.13;;;3.28;;
24739;SDS011;45234;48.148;17.128;2023-07-20T08:18:02;3.55;;;3.22;;
24739;SDS011;45234;48.148;17.128;2023-07-20T08:20:29;4.82;;;3.35;;
24739;SDS011;45234;48.148;17.128;2023-07-20T08:22:57;4.65;;;3.33;;
24739;SDS011;45234;48.148;17.128;2023-07-20T08:25:25;3.92;;;3.53;;
24739;SDS011;45234;48.148;17.128;2023-07-20T08:27:52;3.92;;;2.97;;
24739;SDS011;45234;48.148;17.128;2023-07-20T08:30:21;4.82;;;2.88;;
24739;SDS011;45234;48.148;17.128;2023-07-20T08:32:52;4.80;;;3.28;;
24739;SDS011;45234;48.148;17.128;2023-07-20T08:35:19;5.30;;;2.90;;
24739;SDS011;45234;48.148;17.128;2023-07-20T08:37:48;9.75;;;3.30;;
24739;SDS011;45234;48.148;17.128;2023-07-20T08:40:15;8.30;;;3.38;;
24739;SDS011;45234;48.148;17.128;2023-07-20T08:42:43;4.68;;;3.08;;
24739;SDS011;45234;48.148;17.128;2023-07-20T08:45:10;4.35;;;3.13;;
24739;SDS011;45234;48.148;17.128;2023-07-20T08:47:40;5.22;;;3.20;;
24739;SDS011;45234;48.148;17.128;2023-07-20T08:50:08;3.92;;;3.53;;
24739;SDS011;45234;48.148;17.128;2023-07-20T08:52:37;3.90;;;2.90;;
24739;SDS011;45234;48.148;17.128;2023-07-20T08:55:04;6.53;;;3.00;;
24739;SDS011;45234;48.148;17.128;2023-07-20T08:57:32;6.35;;;2.85;;
24739;SDS011;45234;48.148;17.128;2023-07-20T09:00:02;5.40;;;3.25;;
24739;SDS011;45234;48.148;17.128;2023-07-20T09:02:34;4.07;;;2.90;;
24739;SDS011;45234;48.148;17.128;2023-07-20T09:05:04;4.97;;;3.20;;
24739;SDS011;45234;48.148;17.128;2023-07-20T09:07:31;6.10;;;3.00;;
24739;SDS011;45234;48.148;17.128;2023-07-20T09:09:59;6.32;;;3.00;;
24739;SDS011;45234;48.148;17.128;2023-07-20T09:12:41;4.82;;;3.10;;
24739;SDS011;45234;48.148;17.128;2023-07-20T09:15:09;5.18;;;3.33;;
24739;SDS011;45234;48.148;17.128;2023-07-20T09:17:37;7.20;;;2.90;;
24739;SDS011;45234;48.148;17.128;2023-07-20T09:20:05;4.72;;;2.83;;
24739;SDS011;45234;48.148;17.128;2023-07-20T09:22:37;4.65;;;2.80;;
24739;SDS011;45234;48.148;17.128;2023-07-20T09:25:26;5.53;;;3.15;;
24739;SDS011;45234;48.148;17.128;2023-07-20T09:27:56;3.47;;;2.58;;
24739;SDS011;45234;48.148;17.128;2023-07-20T09:30:25;2.60;;;2.40;;
24739;SDS011;45234;48.148;17.128;2023-07-20T09:32:55;5.78;;;3.33;;
24739;SDS011;45234;48.148;17.128;2023-07-20T09:35:22;6.80;;;2.95;;
24739;SDS011;45234;48.148;17.128;2023-07-20T09:37:59;8.95;;;2.75;;
24739;SDS011;45234;48.148;17.128;2023-07-20T09:40:30;3.78;;;2.83;;
24739;SDS011;45234;48.148;17.128;2023-07-20T09:43:09;5.00;;;3.03;;
24739;SDS011;45234;48.148;17.128;2023-07-20T09:45:40;5.07;;;2.72;;
24739;SDS011;45234;48.148;17.128;2023-07-20T09:48:13;5.07;;;2.72;;
24739;SDS011;45234;48.148;17.128;2023-07-20T09:50:48;3.55;;;2.70;;
24739;SDS011;45234;48.148;17.128;2023-07-20T09:53:18;7.03;;;2.92;;
24739;SDS011;45234;48.148;17.128;2023-07-20T09:55:46;4.97;;;2.80;;
24739;SDS011;45234;48.148;17.128;2023-07-20T09:58:14;5.32;;;3.20;;
24739;SDS011;45234;48.148;17.128;2023-07-20T10:00:42;3.75;;;3.08;;
24739;SDS011;45234;48.148;17.128;2023-07-20T10:03:19;4.78;;;2.90;;
24739;SDS011;45234;48.148;17.128;2023-07-20T10:05:59;3.72;;;2.70;;
24739;SDS011;45234;48.148;17.128;2023-07-20T10:08:30;4.30;;;3.00;;
24739;SDS011;45234;48.148;17.128;2023-07-20T10:11:03;5.25;;;3.20;;
24739;SDS011;45234;48.148;17.128;2023-07-20T10:13:31;5.38;;;2.97;;
24739;SDS011;45234;48.148;17.128;2023-07-20T10:16:03;3.50;;;2.47;;
24739;SDS011;45234;48.148;17.128;2023-07-20T10:21:27;6.63;;;2.85;;
24739;SDS011;45234;48.148;17.128;2023-07-20T10:23:59;5.22;;;2.72;;
24739;SDS011;45234;48.148;17.128;2023-07-20T10:26:26;6.32;;;3.13;;
24739;SDS011;45234;48.148;17.128;2023-07-20T10:28:54;6.03;;;3.05;;
24739;SDS011;45234;48.148;17.128;2023-07-20T10:31:22;5.65;;;2.63;;
24739;SDS011;45234;48.148;17.128;2023-07-20T10:33:50;3.45;;;2.75;;
24739;SDS011;45234;48.148;17.128;2023-07-20T10:36:24;4.03;;;2.47;;
24739;SDS011;45234;48.148;17.128;2023-07-20T10:38:57;6.05;;;2.83;;
24739;SDS011;45234;48.148;17.128;2023-07-20T10:43:58;4.65;;;3.05;;
24739;SDS011;45234;48.148;17.128;2023-07-20T10:49:11;6.60;;;3.45;;
24739;SDS011;45234;48.148;17.128;2023-07-20T10:51:48;4.15;;;3.10;;
24739;SDS011;45234;48.148;17.128;2023-07-20T10:56:48;7.53;;;3.47;;
24739;SDS011;45234;48.148;17.128;2023-07-20T11:02:10;5.28;;;3.20;;
24739;SDS011;45234;48.148;17.128;2023-07-20T11:04:38;3.95;;;3.00;;
24739;SDS011;45234;48.148;17.128;2023-07-20T11:07:07;6.28;;;3.42;;
24739;SDS011;45234;48.148;17.128;2023-07-20T11:09:37;3.58;;;2.63;;
24739;SDS011;45234;48.148;17.128;2023-07-20T11:12:14;3.60;;;2.42;;
24739;SDS011;45234;48.148;17.128;2023-07-20T11:14:53;4.32;;;2.85;;
24739;SDS011;45234;48.148;17.128;2023-07-20T11:17:28;7.97;;;2.92;;
24739;SDS011;45234;48.148;17.128;2023-07-20T11:19:57;5.25;;;2.67;;
24739;SDS011;45234;48.148;17.128;2023-07-20T11:22:30;4.20;;;2.63;;
24739;SDS011;45234;48.148;17.128;2023-07-20T11:24:57;3.65;;;2.80;;
24739;SDS011;45234;48.148;17.128;2023-07-20T11:27:24;4.47;;;3.20;;
24739;SDS011;45234;48.148;17.128;2023-07-20T11:29:51;8.07;;;2.95;;
24739;SDS011;45234;48.148;17.128;2023-07-20T11:32:22;6.07;;;2.88;;
24739;SDS011;45234;48.148;17.128;2023-07-20T11:34:50;4.20;;;2.70;;
24739;SDS011;45234;48.148;17.128;2023-07-20T11:37:17;4.22;;;2.75;;
24739;SDS011;45234;48.148;17.128;2023-07-20T11:39:44;5.85;;;2.83;;
24739;SDS011;45234;48.148;17.128;2023-07-20T11:42:13;7.07;;;3.30;;
24739;SDS011;45234;48.148;17.128;2023-07-20T11:44:44;5.78;;;2.60;;
24739;SDS011;45234;48.148;17.128;2023-07-20T11:47:11;4.13;;;2.80;;
24739;SDS011;45234;48.148;17.128;2023-07-20T11:49:39;4.63;;;3.10;;
24739;SDS011;45234;48.148;17.128;2023-07-20T11:52:08;4.40;;;2.83;;
24739;SDS011;45234;48.148;17.128;2023-07-20T11:54:37;3.85;;;2.30;;
24739;SDS011;45234;48.148;17.128;2023-07-20T11:57:06;3.05;;;2.28;;
24739;SDS011;45234;48.148;17.128;2023-07-20T11:59:33;6.05;;;2.72;;
24739;SDS011;45234;48.148;17.128;2023-07-20T12:02:01;4.18;;;2.80;;
24739;SDS011;45234;48.148;17.128;2023-07-20T12:04:30;2.85;;;2.60;;
24739;SDS011;45234;48.148;17.128;2023-07-20T12:06:58;3.15;;;2.13;;
24739;SDS011;45234;48.148;17.128;2023-07-20T12:09:26;5.75;;;2.80;;
24739;SDS011;45234;48.148;17.128;2023-07-20T12:12:11;4.32;;;3.03;;
24739;SDS011;45234;48.148;17.128;2023-07-20T12:14:38;4.55;;;2.60;;
24739;SDS011;45234;48.148;17.128;2023-07-20T12:17:07;6.65;;;2.90;;
24739;SDS011;45234;48.148;17.128;2023-07-20T12:19:38;5.07;;;2.80;;
24739;SDS011;45234;48.148;17.128;2023-07-20T12:22:08;5.75;;;2.80;;
24739;SDS011;45234;48.148;17.128;2023-07-20T12:24:37;3.15;;;2.72;;
24739;SDS011;45234;48.148;17.128;2023-07-20T12:27:04;4.28;;;2.58;;
24739;SDS011;45234;48.148;17.128;2023-07-20T12:29:31;3.50;;;2.53;;
24739;SDS011;45234;48.148;17.128;2023-07-20T12:32:02;7.35;;;2.85;;
24739;SDS011;45234;48.148;17.128;2023-07-20T12:34:29;7.38;;;2.65;;
24739;SDS011;45234;48.148;17.128;2023-07-20T12:36:56;7.72;;;2.95;;
24739;SDS011;45234;48.148;17.128;2023-07-20T12:39:23;5.80;;;2.50;;
24739;SDS011;45234;48.148;17.128;2023-07-20T12:41:50;4.55;;;2.83;;
24739;SDS011;45234;48.148;17.128;2023-07-20T12:44:16;3.78;;;2.53;;
24739;SDS011;45234;48.148;17.128;2023-07-20T12:46:43;7.82;;;2.80;;
24739;SDS011;45234;48.148;17.128;2023-07-20T12:49:10;5.47;;;2.97;;
24739;SDS011;45234;48.148;17.128;2023-07-20T12:51:37;4.85;;;3.00;;
24739;SDS011;45234;48.148;17.128;2023-07-20T12:54:04;4.07;;;2.65;;
24739;SDS011;45234;48.148;17.128;2023-07-20T12:56:31;4.03;;;2.20;;
24739;SDS011;45234;48.148;17.128;2023-07-20T12:59:01;4.03;;;2.60;;
24739;SDS011;45234;48.148;17.128;2023-07-20T13:01:28;6.70;;;2.90;;
24739;SDS011;45234;48.148;17.128;2023-07-20T13:03:56;4.90;;;2.55;;
24739;SDS011;45234;48.148;17.128;2023-07-20T13:06:26;5.38;;;3.10;;
24739;SDS011;45234;48.148;17.128;2023-07-20T13:08:53;5.18;;;2.63;;
24739;SDS011;45234;48.148;17.128;2023-07-20T13:11:22;3.83;;;2.58;;
24739;SDS011;45234;48.148;17.128;2023-07-20T13:13:50;8.18;;;2.95;;
24739;SDS011;45234;48.148;17.128;2023-07-20T13:16:17;4.28;;;3.00;;
24739;SDS011;45234;48.148;17.128;2023-07-20T13:18:44;4.97;;;2.60;;
24739;SDS011;45234;48.148;17.128;2023-07-20T13:21:10;6.13;;;2.63;;
24739;SDS011;45234;48.148;17.128;2023-07-20T13:23:44;3.97;;;2.58;;
24739;SDS011;45234;48.148;17.128;2023-07-20T13:26:11;7.03;;;2.45;;
24739;SDS011;45234;48.148;17.128;2023-07-20T13:28:38;4.38;;;2.55;;
24739;SDS011;45234;48.148;17.128;2023-07-20T13:31:05;7.15;;;2.33;;
24739;SDS011;45234;48.148;17.128;2023-07-20T13:33:37;7.20;;;2.58;;
24739;SDS011;45234;48.148;17.128;2023-07-20T13:36:05;6.03;;;2.75;;
24739;SDS011;45234;48.148;17.128;2023-07-20T13:38:34;5.45;;;2.50;;
24739;SDS011;45234;48.148;17.128;2023-07-20T13:41:01;8.25;;;3.08;;
24739;SDS011;45234;48.148;17.128;2023-07-20T13:43:28;6.32;;;3.13;;
24739;SDS011;45234;48.148;17.128;2023-07-20T13:45:55;13.27;;;2.75;;
24739;SDS011;45234;48.148;17.128;2023-07-20T13:48:22;7.05;;;2.35;;
24739;SDS011;45234;48.148;17.128;2023-07-20T13:50:52;6.57;;;3.00;;
24739;SDS011;45234;48.148;17.128;2023-07-20T13:53:23;5.72;;;2.45;;
24739;SDS011;45234;48.148;17.128;2023-07-20T13:55:53;3.00;;;2.30;;
24739;SDS011;45234;48.148;17.128;2023-07-20T13:58:23;4.07;;;2.63;;
24739;SDS011;45234;48.148;17.128;2023-07-20T14:00:50;5.72;;;2.60;;
24739;SDS011;45234;48.148;17.128;2023-07-20T14:03:17;10.15;;;2.33;;
24739;SDS011;45234;48.148;17.128;2023-07-20T14:05:45;3.72;;;2.53;;
24739;SDS011;45234;48.148;17.128;2023-07-20T14:08:14;6.25;;;2.78;;
24739;SDS011;45234;48.148;17.128;2023-07-20T14:10:41;8.18;;;2.67;;
24739;SDS011;45234;48.148;17.128;2023-07-20T14:13:12;3.10;;;2.40;;
24739;SDS011;45234;48.148;17.128;2023-07-20T14:15:39;3.15;;;2.20;;
24739;SDS011;45234;48.148;17.128;2023-07-20T14:18:07;6.82;;;2.30;;
24739;SDS011;45234;48.148;17.128;2023-07-20T14:20:34;3.05;;;2.30;;
24739;SDS011;45234;48.148;17.128;2023-07-20T14:23:04;6.13;;;2.65;;
24739;SDS011;45234;48.148;17.128;2023-07-20T14:25:31;4.75;;;2.53;;
24739;SDS011;45234;48.148;17.128;2023-07-20T14:28:03;5.28;;;2.45;;
24739;SDS011;45234;48.148;17.128;2023-07-20T14:30:30;10.10;;;2.50;;
24739;SDS011;45234;48.148;17.128;2023-07-20T14:32:57;2.75;;;2.10;;
24739;SDS011;45234;48.148;17.128;2023-07-20T14:35:24;8.20;;;2.40;;
24739;SDS011;45234;48.148;17.128;2023-07-20T14:37:51;8.77;;;2.28;;
24739;SDS011;45234;48.148;17.128;2023-07-20T14:40:18;3.90;;;2.10;;
24739;SDS011;45234;48.148;17.128;2023-07-20T14:42:45;4.35;;;2.10;;
24739;SDS011;45234;48.148;17.128;2023-07-20T14:45:12;5.45;;;2.42;;
24739;SDS011;45234;48.148;17.128;2023-07-20T14:47:39;3.80;;;2.28;;
24739;SDS011;45234;48.148;17.128;2023-07-20T14:50:06;3.55;;;2.50;;
24739;SDS011;45234;48.148;17.128;2023-07-20T14:52:33;2.65;;;2.03;;
24739;SDS011;45234;48.148;17.128;2023-07-20T14:55:00;3.50;;;2.30;;
24739;SDS011;45234;48.148;17.128;2023-07-20T14:57:30;3.33;;;2.30;;
24739;SDS011;45234;48.148;17.128;2023-07-20T14:59:57;4.40;;;2.00;;
24739;SDS011;45234;48.148;17.128;2023-07-20T15:02:24;4.05;;;2.22;;
24739;SDS011;45234;48.148;17.128;2023-07-20T15:04:51;5.57;;;2.25;;